This is the latest recevied weather packets stored in our database for station/object EA1IDU. If no packets are shown the sender has not sent any weather packets the latest 10 day(s).
| Time | Temp. | Humidity | Pressure | Rain* | Wind** | Luminosity | Snow |
|---|---|---|---|---|---|---|---|
| 1777862461 | 8.89° C | 92% | 1013.4 hPa | 0 mm | - | - | - |
| 1777860061 | 8.89° C | 93% | 1013.4 hPa | 0 mm | - | - | - |
| 1777859436 | 8.89° C | 93% | 1013.5 hPa | 0 mm | - | - | - |
| 1777858226 | 8.89° C | 93% | 1013.6 hPa | 0 mm | - | - | - |
| 1777857016 | 8.89° C | 92% | 1013.6 hPa | 0 mm | - | - | - |
| 1777843220 | 10.56° C | 83% | 1013.7 hPa | 0 mm | - | - | - |
| 1777839046 | 11.67° C | 84% | 1013 hPa | 0 mm | - | - | - |
| 1777837856 | 11.67° C | 84% | 1012.8 hPa | 0 mm | - | - | - |
| 1777837231 | 11.67° C | 82% | 1012.8 hPa | 0 mm | - | - | - |
| 1777836626 | 12.22° C | 82% | 1012.5 hPa | 0 mm | - | - | - |
| 1777836021 | 12.22° C | 83% | 1012.4 hPa | 0 mm | - | - | - |
| 1777822267 | 13.33° C | 79% | 1012.7 hPa | 1.27 mm | - | - | - |
| 1777819261 | 15° C | 66% | 1012.5 hPa | 0 mm | - | - | - |
| 1777817447 | 14.44° C | 64% | 1012.8 hPa | 0 mm | - | - | - |
| 1777815632 | 14.44° C | 67% | 1013.2 hPa | 0 mm | - | - | - |
| 1777814422 | 15° C | 68% | 1013.2 hPa | 0 mm | - | - | - |
| 1777813272 | 14.44° C | 70% | 1013.3 hPa | 0 mm | - | - | - |
| 1777811478 | 14.44° C | 73% | 1013.7 hPa | 0 mm | - | - | - |
| 1777809663 | 13.89° C | 74% | 1014.2 hPa | 0 mm | - | - | - |
| 1777801837 | 11.11° C | 91% | 1015 hPa | 1.78 mm | - | - | - |
| 1777801233 | 10.56° C | 91% | 1015.1 hPa | 1.78 mm | - | - | - |
| 1777799418 | 11.11° C | 89% | 1015.2 hPa | 1.02 mm | - | - | - |
| 1777795848 | 11.67° C | 80% | 1015 hPa | 0 mm | - | - | - |
| 1777788648 | 9.44° C | 94% | 1015 hPa | 0 mm | - | - | - |
| 1777784472 | 10° C | 93% | 1015 hPa | 0 mm | - | - | - |
* Rain latest hour (hover to see other rain measurements)
** Current wind speed in m/s (hover to see current wind gust speed)